createdAt,value
2018-06-15T00:00:10.315Z,47.03
2018-06-15T00:02:38.512Z,63.10
2018-06-15T00:05:06.869Z,44.87
2018-06-15T00:07:35.041Z,49.30
2018-06-15T00:10:03.219Z,52.10
2018-06-15T00:12:32.205Z,50.83
2018-06-15T00:15:01.212Z,49.03
2018-06-15T00:17:29.155Z,43.97
2018-06-15T00:19:57.385Z,58.87
2018-06-15T00:22:25.617Z,53.50
2018-06-15T00:24:53.817Z,52.70
2018-06-15T00:27:22.015Z,47.70
2018-06-15T00:29:50.208Z,47.33
2018-06-15T00:32:18.506Z,51.57
2018-06-15T00:34:46.676Z,55.27
2018-06-15T00:37:14.840Z,52.30
2018-06-15T00:39:43.052Z,50.73
2018-06-15T00:42:11.275Z,58.40
2018-06-15T00:44:39.448Z,53.50
2018-06-15T00:47:07.844Z,49.10
2018-06-15T00:49:36.116Z,54.83
2018-06-15T00:52:04.339Z,52.03
2018-06-15T00:54:32.567Z,52.50
2018-06-15T00:57:12.075Z,49.30
2018-06-15T00:59:40.483Z,59.50
2018-06-15T01:02:08.709Z,59.90
2018-06-15T01:04:36.920Z,62.80
2018-06-15T01:07:05.254Z,65.17
2018-06-15T01:09:33.424Z,58.23
2018-06-15T01:12:01.649Z,62.13
2018-06-15T01:14:29.837Z,61.63
2018-06-15T01:16:58.024Z,59.80
2018-06-15T01:19:26.299Z,63.13
2018-06-15T01:21:54.478Z,62.67
2018-06-15T01:24:22.708Z,65.03
2018-06-15T01:26:50.953Z,68.77
2018-06-15T01:29:19.153Z,65.17
2018-06-15T01:31:47.347Z,67.07
2018-06-15T01:34:15.571Z,74.03
2018-06-15T01:36:43.747Z,81.17
2018-06-15T01:39:12.317Z,77.60
2018-06-15T01:41:40.547Z,75.47
2018-06-15T01:44:08.763Z,72.63
2018-06-15T01:46:36.956Z,77.10
2018-06-15T01:49:05.308Z,75.10
2018-06-15T01:51:33.500Z,80.73
2018-06-15T01:54:01.688Z,82.07
2018-06-15T01:56:29.891Z,76.23
2018-06-15T01:58:58.175Z,78.80
2018-06-15T02:01:26.449Z,72.73
2018-06-15T02:03:54.855Z,86.23
2018-06-15T02:06:23.084Z,79.97
2018-06-15T02:08:51.281Z,80.43
2018-06-15T02:11:19.211Z,83.83
2018-06-15T02:13:47.454Z,76.97
2018-06-15T02:16:15.668Z,84.67
2018-06-15T02:18:43.882Z,80.00
2018-06-15T02:21:12.096Z,80.47
2018-06-15T02:23:40.565Z,88.30
2018-06-15T02:26:08.764Z,80.77
2018-06-15T02:28:36.984Z,108.37
2018-06-15T02:31:05.189Z,113.87
2018-06-15T02:33:33.404Z,90.37
2018-06-15T02:36:01.635Z,84.20
2018-06-15T02:38:29.886Z,87.83
2018-06-15T02:40:58.123Z,84.83
2018-06-15T02:43:26.533Z,74.30
2018-06-15T02:45:56.846Z,84.90
2018-06-15T02:48:26.597Z,93.33
2018-06-15T02:50:54.824Z,85.10
2018-06-15T02:53:23.553Z,86.43
2018-06-15T02:55:52.129Z,94.17
2018-06-15T02:58:20.926Z,77.80
2018-06-15T03:00:48.872Z,80.80
2018-06-15T03:03:17.084Z,67.47
2018-06-15T03:05:46.184Z,90.83
2018-06-15T03:08:14.408Z,105.40
2018-06-15T03:10:42.785Z,89.43
2018-06-15T03:13:11.057Z,76.00
2018-06-15T03:15:39.455Z,90.40
2018-06-15T03:18:07.694Z,96.27
2018-06-15T03:20:35.944Z,96.40
2018-06-15T03:23:04.177Z,105.67
2018-06-15T03:25:32.384Z,79.27
2018-06-15T03:28:00.596Z,96.80
2018-06-15T03:30:28.816Z,95.17
2018-06-15T03:32:57.026Z,86.63
2018-06-15T03:35:25.277Z,88.27
2018-06-15T03:37:53.514Z,90.17
2018-06-15T03:40:21.900Z,84.47
2018-06-15T03:42:50.152Z,101.97
2018-06-15T03:45:18.394Z,94.63
2018-06-15T03:47:46.594Z,100.17
2018-06-15T03:50:14.804Z,97.13
2018-06-15T03:52:43.021Z,97.50
2018-06-15T03:55:10.985Z,96.60
2018-06-15T03:57:39.245Z,94.43
2018-06-15T04:00:07.498Z,89.27
2018-06-15T04:02:35.764Z,93.27
2018-06-15T04:05:03.989Z,95.00
2018-06-15T04:07:32.240Z,86.70
2018-06-15T04:10:00.640Z,85.23
2018-06-15T04:12:28.898Z,94.83
2018-06-15T04:14:57.172Z,103.70
2018-06-15T04:17:25.479Z,90.20
2018-06-15T04:19:53.803Z,93.60
2018-06-15T04:22:22.037Z,88.47
2018-06-15T04:24:50.299Z,90.40
2018-06-15T04:27:18.575Z,83.27
2018-06-15T04:29:46.834Z,118.40
2018-06-15T04:32:15.088Z,94.60
2018-06-15T04:34:43.333Z,88.53
2018-06-15T04:37:11.604Z,95.17
2018-06-15T04:39:39.951Z,91.43
2018-06-15T04:42:07.958Z,79.60
2018-06-15T04:44:36.225Z,87.40
2018-06-15T04:47:04.761Z,99.07
2018-06-15T04:49:33.031Z,96.40
2018-06-15T04:52:01.418Z,89.27
2018-06-15T04:54:30.058Z,102.83
2018-06-15T04:56:58.304Z,88.50
2018-06-15T04:59:26.580Z,102.27
2018-06-15T05:01:54.810Z,89.80
2018-06-15T05:04:23.098Z,99.97
2018-06-15T05:06:51.379Z,90.30
2018-06-15T05:09:19.883Z,92.83
2018-06-15T05:11:48.120Z,100.53
2018-06-15T05:14:16.388Z,96.17
2018-06-15T05:16:44.625Z,101.03
2018-06-15T05:19:12.881Z,85.83
2018-06-15T05:21:41.176Z,73.20
2018-06-15T05:24:09.452Z,94.67
2018-06-15T05:26:37.772Z,93.47
2018-06-15T05:29:06.040Z,96.00
2018-06-15T05:31:34.324Z,87.33
2018-06-15T05:34:02.637Z,98.80
2018-06-15T05:36:30.904Z,92.37
2018-06-15T05:38:59.346Z,90.73
2018-06-15T05:41:27.652Z,95.97
2018-06-15T05:43:55.924Z,86.80
2018-06-15T05:46:24.169Z,90.07
2018-06-15T05:48:52.883Z,93.10
2018-06-15T05:51:21.276Z,90.30
2018-06-15T05:53:49.541Z,79.80
2018-06-15T05:56:17.797Z,85.80
2018-06-15T05:58:47.371Z,84.63
2018-06-15T06:01:15.627Z,81.67
2018-06-15T06:03:43.904Z,71.07
2018-06-15T06:06:12.141Z,69.20
2018-06-15T06:08:40.571Z,79.97
2018-06-15T06:11:09.325Z,81.27
2018-06-15T06:13:37.640Z,81.40
2018-06-15T06:16:05.918Z,77.60
2018-06-15T06:18:34.211Z,74.30
2018-06-15T06:21:02.786Z,68.97
2018-06-15T06:23:31.132Z,71.57
2018-06-15T06:25:59.472Z,64.97
2018-06-15T06:28:27.730Z,64.60
2018-06-15T06:30:56.012Z,67.23
2018-06-15T06:33:24.309Z,67.23
2018-06-15T06:35:52.716Z,67.33
2018-06-15T06:38:21.004Z,67.90
2018-06-15T06:40:49.247Z,62.40
2018-06-15T06:43:17.511Z,60.30
2018-06-15T06:45:45.724Z,65.57
2018-06-15T06:48:13.947Z,64.03
2018-06-15T06:50:42.199Z,67.93
2018-06-15T06:53:10.448Z,65.47
2018-06-15T06:55:38.697Z,66.73
2018-06-15T06:58:06.922Z,69.80
2018-06-15T07:00:35.364Z,60.87
2018-06-15T07:03:03.582Z,71.03
2018-06-15T07:05:31.812Z,59.03
2018-06-15T07:08:00.105Z,57.30
2018-06-15T07:10:28.078Z,61.03
2018-06-15T07:12:56.360Z,61.23
2018-06-15T07:15:24.644Z,65.97
2018-06-15T07:17:52.872Z,59.90
2018-06-15T07:20:21.139Z,56.43
2018-06-15T07:22:49.371Z,58.60
2018-06-15T07:25:17.890Z,54.73
2018-06-15T07:27:46.167Z,60.03
2018-06-15T07:30:14.492Z,66.83
2018-06-15T07:32:42.736Z,58.50
2018-06-15T07:35:11.017Z,56.60
2018-06-15T07:37:39.353Z,56.33
2018-06-15T07:40:07.580Z,57.03
2018-06-15T07:42:35.847Z,50.97
2018-06-15T07:45:04.203Z,54.67
2018-06-15T07:47:32.436Z,57.57
2018-06-15T07:50:01.076Z,54.77
2018-06-15T07:52:29.394Z,49.40
2018-06-15T07:54:57.637Z,53.73
2018-06-15T07:57:25.860Z,58.20
2018-06-15T07:59:54.243Z,51.90
2018-06-15T08:02:22.539Z,55.63
2018-06-15T08:04:50.771Z,55.23
2018-06-15T08:07:19.040Z,48.10
2018-06-15T08:09:47.311Z,45.00
2018-06-15T08:12:15.663Z,47.50
2018-06-15T08:14:43.941Z,44.00
2018-06-15T08:17:12.239Z,44.53
2018-06-15T08:19:40.473Z,45.27
2018-06-15T08:22:08.732Z,42.17
2018-06-15T08:24:36.980Z,39.67
2018-06-15T08:27:05.247Z,39.20
2018-06-15T08:29:33.557Z,37.80
2018-06-15T08:32:01.867Z,34.40
2018-06-15T08:34:30.249Z,35.40
2018-06-15T08:36:58.689Z,34.50
2018-06-15T08:39:26.948Z,37.23
2018-06-15T08:41:55.191Z,31.97
2018-06-15T08:44:23.593Z,29.43
2018-06-15T08:46:51.848Z,35.80
2018-06-15T08:49:20.125Z,32.50
2018-06-15T08:51:48.445Z,32.53
2018-06-15T08:54:16.718Z,31.60
2018-06-15T08:56:44.946Z,29.47
2018-06-15T08:59:13.279Z,32.77
2018-06-15T09:01:41.594Z,25.73
2018-06-15T09:04:09.836Z,28.70
2018-06-15T09:06:38.092Z,30.63
2018-06-15T09:09:07.729Z,27.03
2018-06-15T09:11:35.791Z,26.43
2018-06-15T09:14:04.084Z,28.50
2018-06-15T09:16:32.124Z,25.97
2018-06-15T09:19:00.285Z,30.57
2018-06-15T09:21:28.600Z,26.43
2018-06-15T09:23:56.810Z,31.03
2018-06-15T09:26:25.036Z,37.73
2018-06-15T09:28:53.308Z,27.00
2018-06-15T09:31:21.552Z,28.83
2018-06-15T09:33:49.812Z,27.00
2018-06-15T09:36:18.114Z,23.50
2018-06-15T09:38:46.387Z,28.53
2018-06-15T09:41:14.665Z,26.67
2018-06-15T09:43:42.939Z,25.20
2018-06-15T09:46:11.257Z,22.57
2018-06-15T09:48:42.155Z,25.00
2018-06-15T09:51:10.679Z,26.27
2018-06-15T09:53:38.950Z,22.13
2018-06-15T09:56:07.212Z,28.93
2018-06-15T09:58:35.468Z,33.60
2018-06-15T10:01:08.076Z,25.30
2018-06-15T10:03:36.852Z,16.87
2018-06-15T10:06:05.132Z,18.20
2018-06-15T10:08:33.731Z,13.40
2018-06-15T10:11:02.137Z,15.60
2018-06-15T10:13:30.419Z,21.40
2018-06-15T10:15:58.686Z,20.00
2018-06-15T10:18:26.965Z,17.63
2018-06-15T10:20:55.213Z,23.50
2018-06-15T10:23:23.473Z,23.67
2018-06-15T10:25:51.752Z,26.13
2018-06-15T10:28:20.000Z,22.47
2018-06-15T10:30:48.278Z,18.93
2018-06-15T10:33:16.511Z,16.60
2018-06-15T10:35:44.756Z,14.13
2018-06-15T10:38:13.001Z,24.50
2018-06-15T10:40:41.447Z,19.63
2018-06-15T10:43:09.697Z,21.20
2018-06-15T10:45:37.941Z,17.73
2018-06-15T10:48:06.192Z,21.70
2018-06-15T10:50:34.436Z,18.07
2018-06-15T10:53:02.696Z,14.60
2018-06-15T10:55:30.939Z,15.17
2018-06-15T10:57:59.184Z,16.87
2018-06-15T11:00:27.444Z,16.80
2018-06-15T11:02:55.667Z,16.17
2018-06-15T11:05:23.904Z,18.33
2018-06-15T11:07:52.156Z,19.50
2018-06-15T11:10:20.583Z,17.23
2018-06-15T11:12:48.815Z,18.93
2018-06-15T11:15:17.097Z,19.50
2018-06-15T11:17:45.453Z,14.83
2018-06-15T11:20:13.725Z,14.33
2018-06-15T11:22:42.134Z,14.17
2018-06-15T11:25:10.375Z,17.20
2018-06-15T11:27:38.612Z,15.90
2018-06-15T11:30:06.891Z,15.27
2018-06-15T11:32:35.233Z,15.73
2018-06-15T11:35:03.452Z,16.00
2018-06-15T11:37:31.729Z,11.80
2018-06-15T11:40:00.108Z,13.10
2018-06-15T11:42:28.433Z,17.00
2018-06-15T11:44:56.673Z,16.13
2018-06-15T11:47:24.944Z,11.33
2018-06-15T11:49:53.238Z,13.07
2018-06-15T11:52:21.492Z,13.57
2018-06-15T11:54:49.764Z,11.73
2018-06-15T11:57:18.056Z,11.60
2018-06-15T11:59:46.307Z,10.00
2018-06-15T12:02:14.541Z,9.67
2018-06-15T12:04:42.807Z,12.03
2018-06-15T12:07:11.080Z,21.10
2018-06-15T12:09:39.470Z,9.73
2018-06-15T12:12:07.807Z,11.50
2018-06-15T12:14:36.057Z,10.53
2018-06-15T12:17:04.368Z,19.10
2018-06-15T12:19:32.718Z,8.60
2018-06-15T12:22:00.984Z,8.57
2018-06-15T12:24:29.247Z,12.77
2018-06-15T12:26:57.512Z,9.17
2018-06-15T12:29:25.792Z,15.50
2018-06-15T12:31:54.008Z,10.13
2018-06-15T12:34:22.260Z,14.80
2018-06-15T12:36:50.957Z,9.70
2018-06-15T12:39:19.358Z,11.83
2018-06-15T12:41:47.634Z,9.57
2018-06-15T12:44:15.974Z,16.00
2018-06-15T12:46:44.224Z,11.00
2018-06-15T12:49:12.508Z,16.70
2018-06-15T12:51:40.783Z,14.30
2018-06-15T12:54:09.059Z,11.43
2018-06-15T12:56:37.363Z,11.40
2018-06-15T12:59:05.691Z,13.20
2018-06-15T13:01:33.910Z,12.33
2018-06-15T13:04:02.214Z,14.30
2018-06-15T13:06:30.477Z,13.00
2018-06-15T13:08:58.920Z,13.57
2018-06-15T13:11:27.174Z,11.83
2018-06-15T13:13:55.469Z,16.17
2018-06-15T13:16:23.748Z,11.30
2018-06-15T13:18:51.975Z,11.27
2018-06-15T13:21:20.252Z,13.53
2018-06-15T13:23:48.576Z,15.17
2018-06-15T13:26:16.723Z,12.13
2018-06-15T13:28:44.980Z,12.67
2018-06-15T13:31:13.232Z,14.73
2018-06-15T13:33:41.493Z,16.60
2018-06-15T13:36:09.788Z,14.07
2018-06-15T13:38:38.048Z,23.77
2018-06-15T13:41:06.308Z,16.87
2018-06-15T13:43:34.561Z,18.30
2018-06-15T13:46:02.788Z,18.50
2018-06-15T13:48:31.017Z,14.97
2018-06-15T13:50:59.272Z,19.17
2018-06-15T13:53:27.518Z,15.43
2018-06-15T13:55:55.740Z,15.60
2018-06-15T13:58:24.060Z,10.27
2018-06-15T14:00:52.180Z,13.47
2018-06-15T14:03:20.441Z,13.43
2018-06-15T14:05:48.699Z,11.23
2018-06-15T14:08:16.945Z,12.07
2018-06-15T14:10:45.221Z,11.60
2018-06-15T14:13:13.462Z,9.63
2018-06-15T14:15:41.699Z,6.60
2018-06-15T14:18:09.973Z,11.50
2018-06-15T14:20:38.308Z,12.87
2018-06-15T14:23:06.527Z,8.43
2018-06-15T14:25:34.777Z,6.73
2018-06-15T14:28:03.034Z,7.60
2018-06-15T14:30:31.382Z,5.83
2018-06-15T14:32:59.640Z,6.87
2018-06-15T14:35:28.065Z,5.87
2018-06-15T14:37:56.347Z,7.40
2018-06-15T14:40:24.636Z,9.30
2018-06-15T14:42:52.859Z,7.83
2018-06-15T14:45:21.144Z,7.60
2018-06-15T14:47:49.384Z,5.53
2018-06-15T14:50:17.723Z,6.43
2018-06-15T14:52:45.959Z,6.20
2018-06-15T14:55:14.226Z,6.40
2018-06-15T14:57:42.476Z,6.60
2018-06-15T15:00:10.535Z,6.57
2018-06-15T15:02:38.994Z,6.70
2018-06-15T15:05:07.712Z,7.90
2018-06-15T15:07:36.108Z,5.23
2018-06-15T15:10:05.444Z,6.30
2018-06-15T15:12:34.379Z,4.53
2018-06-15T15:15:03.056Z,4.20
2018-06-15T15:17:31.588Z,6.83
2018-06-15T15:19:59.928Z,6.57
2018-06-15T15:22:28.192Z,6.80
2018-06-15T15:24:56.664Z,8.50
2018-06-15T15:27:25.391Z,5.53
2018-06-15T15:29:54.099Z,3.90
2018-06-15T15:32:22.600Z,4.57
2018-06-15T15:34:50.942Z,5.53
2018-06-15T15:37:19.577Z,4.63
2018-06-15T15:39:48.575Z,5.17
2018-06-15T15:42:16.931Z,7.43
2018-06-15T15:44:45.583Z,6.30
2018-06-15T15:47:14.610Z,3.63
2018-06-15T15:49:43.296Z,4.50
2018-06-15T15:52:11.875Z,6.70
2018-06-15T15:54:40.620Z,6.87
2018-06-15T15:57:09.044Z,8.10
2018-06-15T15:59:37.562Z,5.40
2018-06-15T16:02:06.323Z,11.53
2018-06-15T16:04:34.989Z,8.30
2018-06-15T16:07:03.539Z,7.87
2018-06-15T16:09:32.351Z,6.53
2018-06-15T16:12:00.591Z,7.10
2018-06-15T16:14:29.219Z,7.40
2018-06-15T16:16:57.896Z,12.80
2018-06-15T16:19:26.648Z,11.90
2018-06-15T16:21:54.955Z,15.90
2018-06-15T16:24:24.008Z,10.20
2018-06-15T16:26:52.602Z,10.20
2018-06-15T16:29:22.090Z,8.40
2018-06-15T16:31:50.921Z,9.77
2018-06-15T16:34:19.436Z,11.07
2018-06-15T16:36:47.766Z,9.13
2018-06-15T16:39:16.731Z,13.40
2018-06-15T16:41:45.559Z,10.23
2018-06-15T16:44:13.821Z,11.13
2018-06-15T16:46:42.083Z,8.10
2018-06-15T16:49:10.312Z,7.07
2018-06-15T16:51:38.287Z,6.07
2018-06-15T16:54:06.652Z,12.80
2018-06-15T16:56:34.938Z,9.60
2018-06-15T16:59:03.039Z,8.67
2018-06-15T17:01:32.037Z,11.67
2018-06-15T17:04:00.456Z,11.10
2018-06-15T17:06:28.836Z,9.13
2018-06-15T17:08:57.151Z,12.83
2018-06-15T17:11:26.081Z,19.63
2018-06-15T17:13:55.059Z,9.30
2018-06-15T17:16:24.851Z,13.83
2018-06-15T17:18:53.493Z,13.33
2018-06-15T17:21:22.267Z,14.40
2018-06-15T17:23:50.899Z,9.30
2018-06-15T17:26:19.571Z,13.60
2018-06-15T17:28:49.078Z,13.63
2018-06-15T17:31:18.321Z,9.83
2018-06-15T17:33:46.559Z,13.03
2018-06-15T17:36:15.686Z,17.43
2018-06-15T17:38:43.998Z,17.83
2018-06-15T17:41:13.078Z,9.73
2018-06-15T17:43:41.865Z,8.10
2018-06-15T17:46:10.407Z,8.83
2018-06-15T17:48:38.764Z,16.57
2018-06-15T17:51:07.553Z,13.07
2018-06-15T17:53:36.378Z,8.97
2018-06-15T17:56:04.600Z,22.13
2018-06-15T17:58:32.872Z,12.43
2018-06-15T18:01:01.144Z,14.20
2018-06-15T18:03:29.402Z,11.10
2018-06-15T18:05:57.672Z,9.43
2018-06-15T18:08:25.973Z,10.20
2018-06-15T18:10:54.241Z,12.10
2018-06-15T18:13:22.489Z,12.83
2018-06-15T18:15:50.747Z,10.80
2018-06-15T18:18:19.001Z,15.83
2018-06-15T18:20:47.416Z,13.43
2018-06-15T18:23:15.753Z,14.57
2018-06-15T18:25:43.989Z,14.00
2018-06-15T18:28:12.233Z,11.27
2018-06-15T18:30:40.508Z,27.97
2018-06-15T18:33:08.780Z,14.37
2018-06-15T18:35:37.008Z,18.37
2018-06-15T18:38:05.452Z,14.10
2018-06-15T18:40:33.835Z,16.50
2018-06-15T18:43:02.090Z,21.57
2018-06-15T18:45:30.390Z,15.80
2018-06-15T18:47:58.703Z,19.00
2018-06-15T18:50:26.991Z,15.90
2018-06-15T18:52:55.232Z,18.23
2018-06-15T18:55:24.395Z,16.60
2018-06-15T18:57:52.691Z,19.00
2018-06-15T19:00:21.508Z,20.83
2018-06-15T19:02:50.575Z,19.97
2018-06-15T19:05:25.379Z,18.23
2018-06-15T19:07:53.802Z,16.93
2018-06-15T19:10:22.070Z,18.40
2018-06-15T19:12:50.339Z,17.30
2018-06-15T19:15:18.630Z,13.33
2018-06-15T19:17:46.914Z,13.93
2018-06-15T19:20:15.248Z,19.83
2018-06-15T19:22:43.672Z,13.43
2018-06-15T19:25:11.916Z,23.37
2018-06-15T19:27:40.423Z,16.93
2018-06-15T19:30:09.360Z,15.73
2018-06-15T19:32:37.600Z,13.43
2018-06-15T19:35:05.846Z,21.50
2018-06-15T19:40:08.443Z,16.10
2018-06-15T19:42:36.667Z,14.90
2018-06-15T19:45:05.082Z,14.30
2018-06-15T19:47:33.236Z,18.03
2018-06-15T19:50:01.610Z,16.13
2018-06-15T19:52:30.023Z,15.77
2018-06-15T19:54:58.535Z,13.90
2018-06-15T19:57:26.787Z,19.53
2018-06-15T19:59:55.060Z,18.10
2018-06-15T20:02:23.321Z,14.53
2018-06-15T20:04:51.615Z,17.23
2018-06-15T20:07:19.848Z,21.70
2018-06-15T20:09:48.137Z,15.27
2018-06-15T20:12:16.391Z,16.20
2018-06-15T20:14:45.504Z,16.17
2018-06-15T20:17:13.799Z,15.40
2018-06-15T20:19:42.056Z,14.80
2018-06-15T20:22:10.319Z,13.43
2018-06-15T20:24:38.546Z,20.23
2018-06-15T20:27:07.140Z,14.53
2018-06-15T20:29:35.431Z,18.90
2018-06-15T20:32:03.672Z,16.33
2018-06-15T20:34:31.929Z,18.53
2018-06-15T20:37:00.540Z,13.97
2018-06-15T20:39:28.791Z,17.53
2018-06-15T20:41:57.049Z,15.80
2018-06-15T20:44:25.029Z,15.60
2018-06-15T20:46:53.282Z,11.77
2018-06-15T20:49:22.287Z,18.40
2018-06-15T20:51:50.616Z,21.43
2018-06-15T20:54:19.289Z,14.40
2018-06-15T20:56:47.557Z,27.23
2018-06-15T20:59:15.804Z,21.30
2018-06-15T21:01:43.838Z,20.80
2018-06-15T21:04:12.080Z,19.17
2018-06-15T21:06:40.339Z,21.63
2018-06-15T21:09:09.539Z,16.10
2018-06-15T21:11:37.887Z,23.03
2018-06-15T21:14:06.196Z,16.20
2018-06-15T21:16:34.504Z,22.47
2018-06-15T21:19:02.752Z,19.50
2018-06-15T21:21:31.013Z,23.27
2018-06-15T21:23:59.271Z,26.50
2018-06-15T21:26:27.559Z,32.87
2018-06-15T21:28:56.135Z,33.97
2018-06-15T21:31:24.601Z,24.07
2018-06-15T21:33:52.884Z,22.90
2018-06-15T21:36:21.155Z,23.47
2018-06-15T21:38:49.424Z,27.07
2018-06-15T21:41:17.723Z,20.90
2018-06-15T21:43:45.972Z,25.43
2018-06-15T21:46:14.224Z,32.03
2018-06-15T21:48:42.459Z,24.87
2018-06-15T21:51:10.754Z,27.43
2018-06-15T21:53:39.043Z,25.07
2018-06-15T21:56:07.309Z,25.73
2018-06-15T21:58:35.568Z,30.10
2018-06-15T22:01:03.808Z,28.87
2018-06-15T22:03:32.085Z,20.83
2018-06-15T22:06:00.389Z,33.33
2018-06-15T22:08:28.692Z,30.60
2018-06-15T22:10:56.955Z,28.60
2018-06-15T22:13:25.212Z,29.00
2018-06-15T22:15:53.695Z,30.07
2018-06-15T22:18:21.994Z,25.97
2018-06-15T22:20:50.235Z,29.47
2018-06-15T22:23:18.488Z,28.03
2018-06-15T22:25:46.828Z,29.47
2018-06-15T22:28:15.096Z,29.10
2018-06-15T22:30:43.335Z,36.60
2018-06-15T22:33:11.620Z,29.53
2018-06-15T22:35:39.823Z,34.53
2018-06-15T22:38:08.104Z,33.53
2018-06-15T22:40:36.532Z,32.67
2018-06-15T22:43:04.828Z,32.27
2018-06-15T22:45:33.092Z,27.93
2018-06-15T22:48:01.341Z,29.47
2018-06-15T22:50:29.588Z,31.60
2018-06-15T22:52:57.840Z,29.57
2018-06-15T22:55:25.851Z,24.17
2018-06-15T22:57:54.104Z,26.67
2018-06-15T23:00:24.144Z,23.87
2018-06-15T23:02:52.404Z,31.57
2018-06-15T23:05:20.652Z,26.13
2018-06-15T23:07:48.955Z,29.47
2018-06-15T23:10:17.284Z,29.30
2018-06-15T23:12:45.542Z,28.40
2018-06-15T23:15:13.813Z,25.00
2018-06-15T23:17:42.067Z,33.63
2018-06-15T23:20:10.328Z,22.77
2018-06-15T23:22:39.166Z,30.80
2018-06-15T23:25:07.461Z,26.10
2018-06-15T23:27:35.792Z,24.47
2018-06-15T23:30:04.465Z,22.40
2018-06-15T23:32:32.737Z,33.20
2018-06-15T23:35:00.993Z,31.63
2018-06-15T23:37:29.264Z,31.57
2018-06-15T23:39:57.628Z,31.63
2018-06-15T23:42:25.921Z,25.93
2018-06-15T23:44:54.160Z,27.73
2018-06-15T23:47:22.409Z,28.43
2018-06-15T23:49:50.637Z,25.07
2018-06-15T23:52:18.902Z,28.60
2018-06-15T23:54:47.390Z,34.70
2018-06-15T23:57:15.647Z,29.30
2018-06-15T23:59:43.929Z,29.10
